Werte bis 5 Uhr SommerzeitDiagramme Eichhof: Tagesdaten Monatsdaten WindroseCSV-Datei: Eichhof20.csv

Wetterdaten 2020 Station: Eichhof
Temperaturen in °C relative Nieder- Global- Wind Wind Wind- Sonnen-
Datum Boden Boden Luft Luft Luft Luft Feuchte schlag strahlung max richtung schein
20 cm 5 cm 20 cm 2 m 2 m max 2 m min % mm W/m2*d m/s m/s ° h

07.08.2020 0,0 17,9 0,0 0,0 0,0 0,0 0 0,0 0 0,0 0,0 --- ---
06.08.2020 21,3 20,1 20,2 19,9 30,8 8,6 56 0,0 7712 0,8 6,8 115 ---
05.08.2020 20,5 19,1 17,8 17,7 28,0 7,2 59 0,0 7840 1,5 8,3 195 ---
04.08.2020 20,4 18,8 16,0 16,7 24,1 10,8 63 0,0 6261 1,2 8,2 3 ---
03.08.2020 20,9 19,3 16,0 17,2 23,0 12,8 67 0,0 4613 1,6 7,9 40 ---
02.08.2020 22,2 20,3 17,9 19,4 24,9 15,7 79 10,4 3176 1,1 7,0 34 ---
01.08.2020 22,7 21,5 22,3 22,3 33,9 11,5 62 0,0 6345 1,2 9,1 238 ---
31.07.2020 21,8 20,5 22,1 21,6 31,9 10,7 52 0,0 8073 1,4 5,8 39 ---
30.07.2020 20,8 19,4 19,0 18,4 28,9 7,5 56 0,0 7632 0,9 7,6 354 ---
29.07.2020 20,6 19,4 16,9 17,1 24,8 8,8 58 0,0 7102 2,1 11,4 238 ---
28.07.2020 21,2 20,7 19,9 20,8 27,2 13,8 57 0,0 6234 2,9 12,4 238 ---
27.07.2020 20,7 19,4 18,3 19,0 27,6 10,0 65 0,0 5119 1,4 9,4 192 ---
26.07.2020 21,6 20,8 18,8 19,7 25,4 14,1 67 7,7 5302 2,4 11,1 225 ---
25.07.2020 21,8 20,9 21,0 20,7 27,4 15,2 58 0,0 5897 2,2 9,1 222 ---
24.07.2020 21,3 19,3 19,9 19,9 27,5 11,9 53 0,0 6163 2,1 11,7 230 ---
23.07.2020 20,8 19,1 17,7 17,6 25,6 8,2 54 0,0 8188 1,3 6,0 28 ---
22.07.2020 20,2 18,2 16,0 16,1 25,0 5,3 55 0,0 8049 1,1 6,3 39 ---
21.07.2020 20,1 18,2 15,3 16,0 24,2 6,8 58 0,0 8112 1,6 8,5 14 ---
20.07.2020 20,2 18,8 16,3 17,5 25,1 11,4 69 0,0 5618 1,6 9,4 38 ---
19.07.2020 19,9 19,4 17,8 18,9 28,5 8,7 60 0,0 6831 1,5 7,2 197 ---
18.07.2020 19,0 18,2 15,5 16,9 27,5 6,9 65 0,0 6629 0,6 4,8 148 ---
17.07.2020 18,5 17,4 14,3 15,7 22,6 10,6 73 0,1 5096 0,9 5,2 103 ---
16.07.2020 18,3 16,7 11,5 13,4 17,7 9,5 87 2,1 1594 0,8 5,8 196 ---
15.07.2020 19,9 18,1 14,4 15,6 19,6 11,4 81 1,7 4035 1,5 8,1 226 ---
14.07.2020 20,0 19,2 17,4 18,1 27,2 8,2 57 0,0 6274 1,6 9,2 213 ---
13.07.2020 19,2 18,3 16,0 16,7 26,4 6,3 57 0,0 8248 0,7 6,3 328 ---
12.07.2020 18,6 18,0 13,5 14,6 22,9 6,1 62 0,0 7368 1,3 7,5 35 ---
11.07.2020 18,8 18,1 13,5 14,7 21,8 8,2 62 0,0 6010 1,2 7,6 12 ---
10.07.2020 19,5 19,8 16,4 18,5 23,1 13,5 70 0,0 4350 2,6 15,1 262 ---
09.07.2020 18,6 18,7 16,7 18,7 26,2 13,6 76 2,9 4630 2,3 13,0 --- ---
08.07.2020 18,4 17,7 12,5 14,0 16,1 12,6 86 2,6 2417 1,7 7,0 --- ---
07.07.2020 18,5 18,2 13,9 14,5 21,1 7,4 62 0,0 7176 2,2 11,1 --- ---
06.07.2020 19,6 18,7 14,5 15,7 20,5 9,2 66 4,0 5389 3,7 15,1 --- ---
05.07.2020 20,1 20,1 19,5 21,6 27,1 18,4 64 0,0 3973 4,6 14,8 --- ---
04.07.2020 19,8 19,0 16,7 18,3 24,5 10,3 60 0,0 5927 3,6 12,6 --- ---
03.07.2020 20,2 19,4 16,2 17,5 23,1 13,2 66 0,0 7044 2,6 9,8 --- ---
02.07.2020 20,4 19,7 17,4 18,7 24,6 14,8 73 8,2 6694 2,3 14,3 --- ---
01.07.2020 19,5 19,1 18,3 19,9 26,8 12,7 66 2,8 5938 2,9 12,3 --- ---
30.06.2020 19,0 18,2 14,5 16,1 22,2 8,6 60 0,0 5992 3,6 16,6 --- ---
29.06.2020 19,8 18,9 14,5 16,2 22,8 10,4 68 0,8 6894 2,7 14,8 --- ---
28.06.2020 21,2 20,1 17,4 19,5 23,4 13,8 70 0,0 3452 2,6 11,0 --- ---
27.06.2020 21,5 20,5 20,0 21,4 27,6 15,0 68 3,5 7566 2,7 14,8 --- ---
26.06.2020 20,7 19,8 19,6 20,6 29,3 11,3 59 0,0 8517 1,3 8,5 --- ---
25.06.2020 20,2 19,4 17,7 19,6 25,1 13,6 68 0,0 6073 2,5 12,3 --- ---
24.06.2020 20,0 19,3 17,6 19,0 24,9 9,9 56 0,0 9016 2,6 10,3 --- ---
23.06.2020 19,5 18,7 17,0 18,0 26,4 8,8 61 0,0 9001 1,3 7,1 --- ---
22.06.2020 19,4 18,9 17,1 18,4 23,2 12,2 71 0,0 6215 1,8 8,6 --- ---
21.06.2020 18,6 18,7 16,6 17,6 25,5 8,7 65 0,0 7889 1,4 6,9 --- ---
20.06.2020 18,4 18,9 16,4 17,9 22,5 12,5 68 0,0 5137 1,8 7,9 --- ---
19.06.2020 18,1 18,8 15,1 16,5 23,6 10,8 76 0,1 4955 2,0 11,0 --- ---
18.06.2020 18,4 18,0 14,1 16,2 20,8 12,9 86 1,7 2302 1,5 6,8 --- ---
17.06.2020 18,3 19,0 15,6 17,2 24,9 12,3 82 8,0 4673 1,8 9,3 --- ---
16.06.2020 18,0 18,2 15,3 17,3 21,0 13,3 82 0,0 3176 1,4 6,0 --- ---
15.06.2020 18,4 18,4 13,8 16,1 17,6 14,7 90 18,2 1567 1,3 5,4 --- ---
14.06.2020 19,5 20,0 15,9 18,1 21,0 15,0 91 25,4 2310 1,5 9,3 --- ---
13.06.2020 19,1 20,8 20,1 21,4 29,3 12,4 67 0,0 7808 1,8 11,0 --- ---
12.06.2020 16,9 19,1 17,4 19,0 27,3 10,6 67 0,0 7837 2,2 11,0 --- ---
11.06.2020 15,9 16,7 12,8 14,6 18,3 11,6 82 1,6 2594 1,5 5,6 --- ---
10.06.2020 15,8 16,0 12,6 14,2 18,1 12,1 83 3,1 2719 1,7 7,7 --- ---
09.06.2020 15,5 15,7 11,0 12,4 18,6 6,0 84 5,0 2975 1,0 11,6 --- ---
08.06.2020 15,6 16,6 12,9 13,5 21,1 6,0 64 0,0 5998 1,2 6,2 --- ---
07.06.2020 14,9 15,5 11,6 12,8 18,2 6,8 65 0,0 5371 2,1 10,5 --- ---
06.06.2020 14,7 14,1 9,5 10,6 15,3 6,5 80 8,5 4747 2,8 12,3 --- ---
05.06.2020 16,2 15,3 9,7 11,1 14,8 8,5 77 6,6 3238 3,5 14,7 --- ---
04.06.2020 18,0 15,6 12,2 13,6 16,6 10,8 91 8,4 1794 1,1 6,2 --- ---
03.06.2020 18,9 17,9 18,1 17,5 27,7 8,6 66 0,4 6273 1,4 9,2 --- ---
02.06.2020 18,1 16,2 18,1 17,6 26,7 7,6 55 0,0 8498 1,6 7,2 --- ---
01.06.2020 17,0 14,7 15,8 15,5 23,8 4,9 56 0,0 9128 2,3 10,1 --- ---
31.05.2020 16,3 13,6 12,9 12,7 19,4 4,5 60 0,0 7465 2,2 9,2 --- ---
30.05.2020 16,3 13,1 12,8 12,8 19,3 3,6 52 0,0 6391 2,8 12,6 --- ---
29.05.2020 16,6 13,7 13,1 12,8 19,9 3,5 53 0,0 8925 2,2 11,5 --- ---
28.05.2020 16,8 14,8 15,2 15,0 20,2 7,3 51 0,0 9057 3,4 11,6 --- ---
27.05.2020 15,6 13,8 14,3 14,3 23,4 3,9 60 0,0 7548 1,2 6,8 --- ---
26.05.2020 14,7 12,7 11,4 11,9 19,2 3,7 67 0,0 6710 1,3 7,2 --- ---
25.05.2020 14,4 13,5 12,8 13,9 19,3 8,5 67 0,3 6350 2,4 12,2 --- ---
24.05.2020 14,1 13,0 9,9 11,5 16,8 4,8 71 1,0 4030 3,2 11,3 --- ---
23.05.2020 15,9 14,7 11,7 13,2 17,1 8,6 76 3,0 3025 2,8 9,8 --- ---
22.05.2020 16,2 14,4 16,2 17,0 25,5 7,8 71 1,6 3826 1,7 9,0 --- ---
21.05.2020 15,8 14,3 16,2 15,6 25,4 6,2 61 0,0 8332 0,9 6,5 --- ---
20.05.2020 16,0 13,9 15,4 15,6 19,5 9,5 74 0,0 4238 2,1 7,6 --- ---
19.05.2020 15,1 13,6 16,6 15,9 23,8 5,9 59 0,0 7114 1,4 8,6 --- ---
18.05.2020 14,1 12,7 14,4 13,9 22,9 3,7 60 0,0 8099 2,4 9,6 --- ---
17.05.2020 13,7 12,0 12,7 11,8 19,3 4,6 59 0,0 7740 1,1 6,7 --- ---
16.05.2020 12,5 10,5 11,3 10,2 19,3 -0,5 57 0,0 8071 1,3 7,4 --- ---
15.05.2020 11,9 10,2 9,3 8,8 16,5 0,9 57 0,0 8054 2,4 10,5 --- ---
14.05.2020 11,9 10,1 8,4 8,5 13,6 3,8 64 0,0 4579 2,8 8,7 --- ---
13.05.2020 11,7 9,7 8,6 8,1 14,0 1,3 58 0,0 5544 1,3 6,8 --- ---
12.05.2020 10,9 8,0 5,4 5,3 12,3 -1,3 66 0,0 6761 1,3 9,0 --- ---
11.05.2020 13,0 10,0 4,8 6,0 14,9 1,1 85 15,9 1465 3,7 13,2 --- ---
10.05.2020 15,1 12,6 14,7 15,4 22,5 9,0 77 0,1 3730 1,2 6,9 --- ---
09.05.2020 14,7 12,9 15,1 15,3 24,1 6,7 58 0,0 5720 1,8 6,4 --- ---
08.05.2020 13,8 11,7 14,3 14,3 23,8 4,4 51 0,0 7341 1,5 7,1 --- ---
07.05.2020 12,6 10,5 11,2 11,1 22,9 0,8 56 0,0 8219 1,3 6,5 --- ---
06.05.2020 11,7 9,4 8,0 8,3 17,2 -1,7 57 0,0 8157 1,4 10,3 --- ---
05.05.2020 11,3 9,6 6,5 7,0 14,1 0,8 63 0,0 7692 1,7 8,6 --- ---
04.05.2020 11,8 10,3 7,2 8,9 12,8 3,3 83 0,0 2187 1,8 8,6 --- ---
03.05.2020 11,4 11,0 8,5 9,7 16,7 2,6 71 0,0 5519 2,0 8,7 --- ---
02.05.2020 11,1 10,1 6,7 8,3 11,5 5,4 82 4,9 2963 2,7 11,7 --- ---
01.05.2020 11,8 10,9 8,1 9,5 13,7 5,3 79 2,6 4156 2,9 11,2 --- ---
30.04.2020 12,3 11,6 9,2 10,8 14,8 6,4 83 5,9 2686 3,0 11,1 --- ---
29.04.2020 12,5 12,1 11,2 12,2 18,1 7,2 72 0,0 5462 3,0 15,4 --- ---
28.04.2020 12,2 10,8 10,4 10,7 17,2 3,0 78 3,1 2228 1,9 8,5 --- ---
27.04.2020 12,0 11,3 12,5 12,1 22,2 1,3 56 0,0 7609 2,0 10,7 --- ---
26.04.2020 11,3 10,8 10,7 9,8 20,1 -0,2 59 0,0 7509 0,9 7,6 --- ---
25.04.2020 11,7 10,8 9,9 9,7 16,5 3,8 61 0,0 6596 1,8 7,8 --- ---
24.04.2020 11,5 11,2 11,7 12,0 22,5 2,7 60 0,0 6186 1,9 11,8 --- ---
23.04.2020 11,2 11,4 12,0 12,1 21,9 2,2 54 0,0 7503 1,9 9,6 --- ---
22.04.2020 10,9 10,8 12,2 12,5 18,8 4,0 42 0,0 7663 4,3 13,9 --- ---
21.04.2020 10,5 10,3 11,7 11,6 17,3 5,2 40 0,0 7522 6,0 16,2 --- ---
20.04.2020 10,4 10,1 9,8 10,1 15,2 2,6 38 0,0 7553 5,2 17,6 --- ---
19.04.2020 11,6 12,1 9,6 10,9 15,2 7,2 60 2,5 3987 3,7 13,0 --- ---
18.04.2020 11,4 11,9 13,7 14,1 22,8 4,5 66 2,0 4527 1,6 7,8 --- ---
17.04.2020 10,7 11,6 12,2 12,7 22,5 2,3 61 0,0 6449 1,5 6,4 --- ---
16.04.2020 9,6 10,0 11,3 11,3 22,7 -0,5 59 0,0 6631 1,5 9,3 --- ---
15.04.2020 8,6 8,2 7,3 6,9 18,8 -2,3 64 0,0 6266 1,7 7,6 --- ---
14.04.2020 8,8 7,7 4,2 4,4 9,9 -0,5 58 0,0 4316 1,9 9,6 --- ---
13.04.2020 10,2 8,4 6,3 7,0 11,1 -0,2 63 0,0 4442 2,6 12,9 --- ---
12.04.2020 10,2 10,2 10,4 11,2 23,2 0,8 59 0,0 5149 1,8 10,9 --- ---
11.04.2020 10,2 9,5 9,3 9,9 20,0 0,0 50 0,0 6662 1,5 5,0 --- ---
10.04.2020 10,4 10,2 10,4 11,2 19,3 2,2 57 0,0 6173 1,7 9,5 --- ---
09.04.2020 10,3 10,4 11,1 12,1 21,7 2,0 61 0,0 5449 1,4 6,6 --- ---
08.04.2020 10,1 10,9 12,0 13,3 24,3 4,5 59 0,0 6229 1,2 7,3 --- ---
07.04.2020 9,0 10,0 10,9 11,9 20,8 1,6 66 0,0 6189 2,1 7,3 --- ---
06.04.2020 8,0 8,8 8,9 10,0 22,4 -1,8 59 0,0 6360 1,7 9,9 --- ---
05.04.2020 7,3 7,6 7,0 8,7 18,9 -1,4 57 0,0 6350 2,0 10,2 --- ---
04.04.2020 6,9 7,0 5,7 7,0 14,5 0,6 65 0,0 5032 1,5 6,9 --- ---
03.04.2020 6,3 5,0 4,6 6,2 11,3 0,7 74 0,0 1967 2,6 9,7 --- ---
02.04.2020 5,6 5,5 3,0 4,0 12,4 -4,7 62 0,0 5993 1,8 9,3 --- ---
01.04.2020 5,3 4,4 1,1 1,7 11,5 -6,1 60 0,0 6150 1,3 9,8 --- ---
31.03.2020 5,9 4,5 1,1 2,3 6,4 -2,9 63 0,0 5225 2,1 11,2 --- ---
30.03.2020 5,5 3,9 1,0 1,5 8,8 -6,2 61 0,0 5240 1,4 7,3 --- ---
29.03.2020 6,9 4,8 2,2 3,7 6,9 0,8 75 0,5 1819 3,6 12,7 --- ---
28.03.2020 6,9 6,6 6,7 9,1 15,6 1,5 54 0,0 5473 2,5 8,9 --- ---
27.03.2020 5,7 5,6 6,9 8,9 16,2 2,4 47 0,0 5303 4,3 12,3 --- ---
26.03.2020 4,7 3,7 2,2 4,1 10,4 -3,2 49 0,0 5342 4,1 13,2 --- ---
25.03.2020 4,6 3,5 -0,2 1,8 9,1 -5,8 49 0,0 5825 3,5 14,4 --- ---
24.03.2020 4,9 3,3 -0,2 1,5 8,8 -5,4 49 0,0 5745 1,9 8,7 --- ---
23.03.2020 5,2 3,3 -0,4 1,4 7,6 -4,8 41 0,0 5692 2,4 9,0 --- ---
22.03.2020 6,0 4,2 -0,1 1,9 5,8 -2,2 48 0,0 5726 4,8 14,6 --- ---
21.03.2020 7,5 6,3 2,3 4,4 6,8 1,9 61 0,0 2163 5,9 18,2 --- ---
20.03.2020 8,7 8,1 5,6 8,4 10,5 5,2 80 0,0 951 3,6 11,5 --- ---
19.03.2020 8,3 9,1 6,7 9,0 19,2 2,4 74 0,0 4114 1,2 5,8 --- ---
18.03.2020 7,7 8,0 5,3 7,8 16,9 0,4 77 0,0 4775 2,2 10,9 --- ---
17.03.2020 7,8 7,8 5,8 8,8 15,8 3,7 76 0,0 2855 1,3 7,0 --- ---
16.03.2020 6,9 6,7 4,7 7,1 17,1 -1,3 75 0,0 4357 1,3 6,6 --- ---
15.03.2020 6,7 5,7 3,2 5,7 13,0 -1,2 68 0,0 4580 2,1 10,9 --- ---
14.03.2020 6,8 6,0 2,8 4,8 12,1 0,4 77 0,0 3012 0,9 3,9 --- ---
13.03.2020 7,2 6,5 3,9 6,5 10,6 2,9 62 0,9 2812 5,2 16,8 --- ---
12.03.2020 8,4 8,6 6,7 9,9 12,1 3,8 63 1,6 2770 4,6 17,9 --- ---
11.03.2020 7,5 8,4 7,9 10,7 13,0 7,3 92 24,7 1100 3,0 12,3 --- ---
10.03.2020 5,9 5,4 3,3 6,1 11,0 1,0 92 5,1 622 3,9 13,6 --- ---
09.03.2020 6,3 6,7 4,1 6,8 10,5 2,1 81 1,4 2484 2,4 14,5 --- ---
08.03.2020 5,3 4,7 3,4 5,8 10,1 -0,4 74 0,1 1893 2,8 13,6 --- ---
07.03.2020 5,4 4,3 1,6 4,1 7,6 -0,1 77 6,6 1384 2,4 8,1 --- ---
06.03.2020 5,6 5,0 2,5 4,9 6,8 3,7 89 5,8 812 2,7 9,4 --- ---
05.03.2020 5,0 3,8 1,6 3,8 9,0 -1,0 83 5,3 1881 1,5 7,7 --- ---
04.03.2020 5,0 3,4 -0,4 1,9 7,7 -2,5 90 1,1 1332 1,7 7,2 --- ---
03.03.2020 6,2 5,4 2,1 4,4 6,9 -1,0 78 3,3 2268 2,4 10,7 --- ---
02.03.2020 6,0 6,0 4,1 6,2 10,7 0,8 75 3,1 3067 1,9 11,5 --- ---
01.03.2020 5,7 5,0 3,6 6,4 10,3 3,6 72 2,2 2434 3,9 17,0 --- ---
29.02.2020 5,0 5,1 4,3 6,9 12,2 2,2 78 4,3 2023 4,2 17,5 --- ---
28.02.2020 4,3 3,6 0,4 2,6 5,3 -0,2 78 1,3 1917 3,2 10,6 --- ---
27.02.2020 4,7 3,3 0,1 2,3 4,5 0,4 83 2,3 856 2,8 8,4 --- ---
26.02.2020 5,4 3,9 0,0 2,4 3,9 0,7 88 6,3 1018 3,3 10,9 --- ---
25.02.2020 6,5 6,4 5,0 7,7 10,6 2,6 74 9,9 2031 4,3 16,3 --- ---
24.02.2020 5,9 4,7 1,8 4,5 10,1 -0,6 85 1,4 822 2,9 13,5 --- ---
23.02.2020 6,4 6,3 6,3 9,4 11,8 6,5 83 6,4 293 5,9 19,5 --- ---
22.02.2020 5,2 4,6 4,3 7,0 10,2 2,4 64 0,0 1673 5,4 15,4 --- ---
21.02.2020 5,3 4,5 2,8 5,3 7,9 2,7 69 2,7 2025 4,8 14,2 --- ---
20.02.2020 4,9 3,8 2,3 4,9 8,5 -0,7 84 2,6 909 3,2 13,7 --- ---
19.02.2020 5,5 4,1 2,1 4,8 6,6 -0,2 72 6,0 1175 4,0 13,0 --- ---
18.02.2020 5,9 4,7 3,8 6,3 8,3 5,1 69 0,6 2078 5,7 16,9 --- ---
17.02.2020 6,6 6,2 4,8 7,6 15,7 3,2 76 2,9 1053 4,6 21,8 --- ---
16.02.2020 5,4 6,3 8,4 12,2 16,2 5,2 53 1,9 1275 5,5 20,2 --- ---
15.02.2020 4,5 4,3 2,5 5,5 11,0 1,6 80 0,0 2053 2,3 11,9 --- ---
14.02.2020 3,9 3,6 2,3 4,8 7,6 2,7 86 2,0 1176 2,2 11,2 --- ---
13.02.2020 3,3 1,4 -0,8 2,0 5,5 -1,9 89 1,4 455 1,7 15,9 --- ---
12.02.2020 3,8 2,0 -0,1 2,6 6,0 0,5 76 1,9 1421 3,7 11,7 --- ---
11.02.2020 4,8 3,3 0,7 3,3 6,5 0,5 75 8,1 1801 6,6 19,9 --- ---
10.02.2020 5,8 5,2 4,4 7,4 12,8 4,1 72 25,2 1223 7,9 28,2 --- ---
09.02.2020 4,1 4,0 4,5 7,6 12,6 0,0 67 0,1 1229 5,8 22,8 --- ---
08.02.2020 3,3 2,1 -1,2 1,2 7,2 -5,2 82 0,0 1893 1,1 5,2 --- ---
07.02.2020 4,2 3,0 0,0 2,2 6,5 -2,4 79 0,0 1912 1,5 8,7 --- ---
06.02.2020 4,1 2,1 -0,9 1,2 4,3 -1,4 84 0,0 597 2,3 5,1 --- ---
05.02.2020 5,2 3,0 0,5 2,8 7,6 -2,2 66 0,0 2590 1,7 10,8 --- ---
04.02.2020 6,2 4,7 1,3 3,7 6,2 1,7 86 21,3 1048 2,0 8,0 --- ---
03.02.2020 6,9 6,0 6,0 8,9 10,6 6,2 76 5,0 972 3,4 9,9 --- ---
02.02.2020 6,7 5,7 5,5 8,3 11,9 6,0 76 4,2 342 3,4 12,2 --- ---
01.02.2020 6,8 6,9 7,5 10,6 11,7 8,2 83 12,5 269 4,4 14,8 --- ---
31.01.2020 5,4 5,9 8,1 11,2 14,3 6,8 76 0,1 1317 4,4 13,2 --- ---
30.01.2020 3,6 2,8 2,7 5,4 7,9 0,5 78 0,5 929 3,3 11,0 --- ---
29.01.2020 3,5 2,4 0,4 2,8 4,7 1,5 81 0,1 775 3,9 11,5 --- ---
28.01.2020 4,0 3,3 1,6 4,4 6,5 1,0 79 17,7 620 4,5 15,9 --- ---
27.01.2020 3,2 3,1 1,8 4,3 7,2 0,9 91 6,9 235 2,4 9,9 --- ---
26.01.2020 2,5 1,6 -0,7 1,1 3,2 -0,7 95 0,0 540 1,2 4,2 --- ---
25.01.2020 2,1 0,2 -2,1 -0,3 0,6 -1,2 90 0,0 471 2,2 5,2 --- ---
24.01.2020 2,1 -0,1 -3,0 -1,1 -0,1 -3,7 88 0,0 326 2,1 6,5 --- ---
23.01.2020 2,5 0,5 -1,7 0,6 4,0 -3,4 88 0,0 974 0,9 4,8 --- ---
22.01.2020 2,1 -0,1 -3,8 -2,3 0,9 -5,5 96 0,0 638 1,0 3,7 --- ---
21.01.2020 2,8 0,3 -4,7 -3,0 1,4 -4,9 97 0,0 1193 0,9 3,4 --- ---
20.01.2020 4,0 2,2 -1,5 0,8 5,0 -3,5 87 0,0 867 0,5 3,5 --- ---
19.01.2020 4,2 2,9 -0,5 1,7 4,2 -1,3 92 0,1 568 1,1 4,6 --- ---
18.01.2020 4,9 3,0 0,2 3,2 7,1 -1,2 85 0,5 448 2,0 9,0 --- ---
17.01.2020 5,1 2,9 0,8 2,8 9,5 -1,9 90 0,4 1235 1,3 7,1 --- ---
16.01.2020 6,2 4,5 4,4 7,3 12,3 0,0 85 0,4 1361 1,1 7,8 --- ---
15.01.2020 5,6 5,4 6,5 9,7 12,3 4,5 59 0,0 1510 3,5 12,2 --- ---
14.01.2020 4,8 4,4 4,9 7,8 10,5 4,4 64 0,0 374 3,7 13,6 --- ---
13.01.2020 4,3 3,5 2,7 5,1 6,3 3,9 87 0,6 293 2,2 8,3 --- ---
12.01.2020 3,9 1,9 -1,1 1,2 4,5 -3,0 88 0,2 515 3,1 13,0 --- ---
11.01.2020 5,4 3,9 1,0 3,1 6,0 -0,8 80 0,0 1225 2,2 8,3 --- ---
10.01.2020 6,2 6,1 5,1 7,9 9,8 4,9 82 3,5 575 2,8 9,9 --- ---
09.01.2020 5,1 5,5 5,8 8,4 10,2 6,2 95 18,2 265 1,6 5,9 --- ---
08.01.2020 3,8 3,2 2,9 5,3 6,5 4,1 90 2,5 184 3,0 8,4 --- ---
07.01.2020 3,2 1,4 0,2 2,5 5,5 -1,5 91 0,0 404 2,0 6,3 --- ---
06.01.2020 3,5 2,2 0,2 2,6 6,0 -0,5 91 0,0 1022 1,1 6,0 --- ---
05.01.2020 3,2 1,5 -0,7 1,3 3,0 -1,0 97 0,1 339 1,3 3,6 --- ---
04.01.2020 3,3 2,4 0,7 3,5 6,5 0,4 88 3,4 226 2,9 11,6 --- ---
03.01.2020 2,1 0,9 1,9 4,5 8,1 0,4 92 2,3 129 2,4 9,1 --- ---
02.01.2020 1,6 -0,2 -4,6 -3,3 0,6 -7,1 96 0,0 380 0,9 4,7 --- ---
01.01.2020 2,0 0,2 -4,5 -2,9 0,0 -4,7 97 0,0 551 0,7 2,7 --- ---

Mittelwerte (Temperaturen, Strahlung, rel. Feuchte, Wind), Summe (Regen) für 2020
11,3 10,5 8,7 10,2 70 426 4.138 2,4

Landesbetrieb Landwirtschaft Hessen 2009

      Werte bis 5 Uhr SommerzeitCSV-Datei: Eichhof20.csvDiagramm: Eichhof